sensor_id;sensor_type;location;lat;lon;timestamp;P1;durP1;ratioP1;P2;durP2;ratioP2
16699;SDS011;8466;52.286;21.124;2023-10-08T00:01:10;6.53;;;4.00;;
16699;SDS011;8466;52.286;21.124;2023-10-08T00:03:41;20.37;;;15.73;;
16699;SDS011;8466;52.286;21.124;2023-10-08T00:06:16;31.60;;;27.93;;
16699;SDS011;8466;52.286;21.124;2023-10-08T00:08:48;31.23;;;26.30;;
16699;SDS011;8466;52.286;21.124;2023-10-08T00:11:18;23.93;;;21.27;;
16699;SDS011;8466;52.286;21.124;2023-10-08T00:13:49;17.63;;;13.27;;
16699;SDS011;8466;52.286;21.124;2023-10-08T00:16:22;12.97;;;9.63;;
16699;SDS011;8466;52.286;21.124;2023-10-08T00:18:52;12.20;;;6.90;;
16699;SDS011;8466;52.286;21.124;2023-10-08T00:21:26;8.70;;;4.37;;
16699;SDS011;8466;52.286;21.124;2023-10-08T00:23:56;9.07;;;4.63;;
16699;SDS011;8466;52.286;21.124;2023-10-08T00:26:26;11.57;;;4.67;;
16699;SDS011;8466;52.286;21.124;2023-10-08T00:28:59;7.73;;;4.50;;
16699;SDS011;8466;52.286;21.124;2023-10-08T00:31:33;9.57;;;4.93;;
16699;SDS011;8466;52.286;21.124;2023-10-08T00:34:07;7.53;;;4.83;;
16699;SDS011;8466;52.286;21.124;2023-10-08T00:36:38;8.83;;;4.60;;
16699;SDS011;8466;52.286;21.124;2023-10-08T00:39:10;7.90;;;4.17;;
16699;SDS011;8466;52.286;21.124;2023-10-08T00:41:41;7.60;;;4.53;;
16699;SDS011;8466;52.286;21.124;2023-10-08T00:44:11;7.50;;;4.03;;
16699;SDS011;8466;52.286;21.124;2023-10-08T00:46:43;8.93;;;4.60;;
16699;SDS011;8466;52.286;21.124;2023-10-08T00:49:15;9.00;;;4.60;;
16699;SDS011;8466;52.286;21.124;2023-10-08T00:51:53;6.47;;;3.93;;
16699;SDS011;8466;52.286;21.124;2023-10-08T00:54:46;6.33;;;4.33;;
16699;SDS011;8466;52.286;21.124;2023-10-08T00:57:25;8.43;;;4.30;;
16699;SDS011;8466;52.286;21.124;2023-10-08T00:59:57;7.87;;;4.10;;
16699;SDS011;8466;52.286;21.124;2023-10-08T01:02:26;8.07;;;4.20;;
16699;SDS011;8466;52.286;21.124;2023-10-08T01:05:09;8.10;;;4.67;;
16699;SDS011;8466;52.286;21.124;2023-10-08T01:07:39;7.67;;;4.30;;
16699;SDS011;8466;52.286;21.124;2023-10-08T01:10:12;7.67;;;4.50;;
16699;SDS011;8466;52.286;21.124;2023-10-08T01:12:46;7.90;;;4.63;;
16699;SDS011;8466;52.286;21.124;2023-10-08T01:15:32;11.60;;;4.33;;
16699;SDS011;8466;52.286;21.124;2023-10-08T01:18:02;7.63;;;4.50;;
16699;SDS011;8466;52.286;21.124;2023-10-08T01:20:35;9.10;;;4.40;;
16699;SDS011;8466;52.286;21.124;2023-10-08T01:23:06;10.83;;;5.00;;
16699;SDS011;8466;52.286;21.124;2023-10-08T01:25:40;7.57;;;4.60;;
16699;SDS011;8466;52.286;21.124;2023-10-08T01:28:10;7.97;;;4.30;;
16699;SDS011;8466;52.286;21.124;2023-10-08T01:30:44;10.57;;;4.87;;
16699;SDS011;8466;52.286;21.124;2023-10-08T01:33:13;8.37;;;5.30;;
16699;SDS011;8466;52.286;21.124;2023-10-08T01:35:47;9.93;;;5.13;;
16699;SDS011;8466;52.286;21.124;2023-10-08T01:38:18;7.53;;;5.23;;
16699;SDS011;8466;52.286;21.124;2023-10-08T01:40:50;9.53;;;5.47;;
16699;SDS011;8466;52.286;21.124;2023-10-08T01:43:19;9.50;;;5.03;;
16699;SDS011;8466;52.286;21.124;2023-10-08T01:45:48;10.73;;;4.90;;
16699;SDS011;8466;52.286;21.124;2023-10-08T01:48:19;8.20;;;5.23;;
16699;SDS011;8466;52.286;21.124;2023-10-08T01:50:55;8.63;;;5.33;;
16699;SDS011;8466;52.286;21.124;2023-10-08T01:53:29;9.40;;;4.73;;
16699;SDS011;8466;52.286;21.124;2023-10-08T01:55:58;7.77;;;4.33;;
16699;SDS011;8466;52.286;21.124;2023-10-08T01:58:28;8.10;;;4.30;;
16699;SDS011;8466;52.286;21.124;2023-10-08T02:00:56;11.57;;;4.90;;
16699;SDS011;8466;52.286;21.124;2023-10-08T02:03:27;10.47;;;5.17;;
16699;SDS011;8466;52.286;21.124;2023-10-08T02:05:56;9.57;;;4.87;;
16699;SDS011;8466;52.286;21.124;2023-10-08T02:08:26;8.97;;;4.73;;
16699;SDS011;8466;52.286;21.124;2023-10-08T02:10:58;7.37;;;4.30;;
16699;SDS011;8466;52.286;21.124;2023-10-08T02:13:29;8.57;;;4.70;;
16699;SDS011;8466;52.286;21.124;2023-10-08T02:15:58;10.00;;;4.93;;
16699;SDS011;8466;52.286;21.124;2023-10-08T02:18:26;7.23;;;4.63;;
16699;SDS011;8466;52.286;21.124;2023-10-08T02:20:58;10.77;;;4.83;;
16699;SDS011;8466;52.286;21.124;2023-10-08T02:23:26;8.93;;;4.67;;
16699;SDS011;8466;52.286;21.124;2023-10-08T02:25:56;8.03;;;4.40;;
16699;SDS011;8466;52.286;21.124;2023-10-08T02:28:26;7.83;;;4.57;;
16699;SDS011;8466;52.286;21.124;2023-10-08T02:30:55;8.13;;;4.37;;
16699;SDS011;8466;52.286;21.124;2023-10-08T02:33:25;7.07;;;3.93;;
16699;SDS011;8466;52.286;21.124;2023-10-08T02:35:54;6.03;;;3.77;;
16699;SDS011;8466;52.286;21.124;2023-10-08T02:38:23;6.07;;;3.53;;
16699;SDS011;8466;52.286;21.124;2023-10-08T02:40:52;7.90;;;4.30;;
16699;SDS011;8466;52.286;21.124;2023-10-08T02:43:25;10.77;;;4.43;;
16699;SDS011;8466;52.286;21.124;2023-10-08T02:45:57;8.37;;;3.93;;
16699;SDS011;8466;52.286;21.124;2023-10-08T02:48:26;8.70;;;4.30;;
16699;SDS011;8466;52.286;21.124;2023-10-08T02:50:56;7.90;;;3.67;;
16699;SDS011;8466;52.286;21.124;2023-10-08T02:53:33;8.00;;;3.43;;
16699;SDS011;8466;52.286;21.124;2023-10-08T02:56:02;7.97;;;3.43;;
16699;SDS011;8466;52.286;21.124;2023-10-08T02:58:40;6.13;;;3.10;;
16699;SDS011;8466;52.286;21.124;2023-10-08T03:01:10;3.93;;;2.77;;
16699;SDS011;8466;52.286;21.124;2023-10-08T03:03:40;7.10;;;2.93;;
16699;SDS011;8466;52.286;21.124;2023-10-08T03:06:10;4.47;;;2.90;;
16699;SDS011;8466;52.286;21.124;2023-10-08T03:08:41;6.53;;;2.40;;
16699;SDS011;8466;52.286;21.124;2023-10-08T03:11:10;6.63;;;2.37;;
16699;SDS011;8466;52.286;21.124;2023-10-08T03:13:45;6.17;;;2.30;;
16699;SDS011;8466;52.286;21.124;2023-10-08T03:16:18;3.67;;;1.87;;
16699;SDS011;8466;52.286;21.124;2023-10-08T03:18:55;5.33;;;2.33;;
16699;SDS011;8466;52.286;21.124;2023-10-08T03:21:24;5.50;;;2.13;;
16699;SDS011;8466;52.286;21.124;2023-10-08T03:24:06;2.23;;;1.53;;
16699;SDS011;8466;52.286;21.124;2023-10-08T03:26:39;2.67;;;1.83;;
16699;SDS011;8466;52.286;21.124;2023-10-08T03:29:13;3.83;;;1.80;;
16699;SDS011;8466;52.286;21.124;2023-10-08T03:31:42;2.77;;;1.63;;
16699;SDS011;8466;52.286;21.124;2023-10-08T03:34:18;3.47;;;1.83;;
16699;SDS011;8466;52.286;21.124;2023-10-08T03:36:47;2.53;;;1.60;;
16699;SDS011;8466;52.286;21.124;2023-10-08T03:39:17;3.63;;;1.90;;
16699;SDS011;8466;52.286;21.124;2023-10-08T03:41:46;5.03;;;2.07;;
16699;SDS011;8466;52.286;21.124;2023-10-08T03:44:27;4.30;;;1.83;;
16699;SDS011;8466;52.286;21.124;2023-10-08T03:46:56;1.87;;;1.40;;
16699;SDS011;8466;52.286;21.124;2023-10-08T03:49:37;3.23;;;1.60;;
16699;SDS011;8466;52.286;21.124;2023-10-08T03:52:12;2.90;;;1.77;;
16699;SDS011;8466;52.286;21.124;2023-10-08T03:54:41;5.63;;;1.97;;
16699;SDS011;8466;52.286;21.124;2023-10-08T03:57:15;2.90;;;1.37;;
16699;SDS011;8466;52.286;21.124;2023-10-08T03:59:53;3.77;;;1.50;;
16699;SDS011;8466;52.286;21.124;2023-10-08T04:02:25;2.93;;;1.57;;
16699;SDS011;8466;52.286;21.124;2023-10-08T04:05:07;2.13;;;1.80;;
16699;SDS011;8466;52.286;21.124;2023-10-08T04:07:46;3.00;;;1.87;;
16699;SDS011;8466;52.286;21.124;2023-10-08T04:10:29;3.23;;;1.60;;
16699;SDS011;8466;52.286;21.124;2023-10-08T04:13:27;1.70;;;1.43;;
16699;SDS011;8466;52.286;21.124;2023-10-08T04:15:58;2.63;;;1.57;;
16699;SDS011;8466;52.286;21.124;2023-10-08T04:18:31;2.47;;;1.57;;
16699;SDS011;8466;52.286;21.124;2023-10-08T04:21:07;2.30;;;1.50;;
16699;SDS011;8466;52.286;21.124;2023-10-08T04:23:39;1.90;;;1.60;;
16699;SDS011;8466;52.286;21.124;2023-10-08T04:26:11;2.70;;;1.60;;
16699;SDS011;8466;52.286;21.124;2023-10-08T04:28:40;3.10;;;1.50;;
16699;SDS011;8466;52.286;21.124;2023-10-08T04:31:10;3.37;;;1.50;;
16699;SDS011;8466;52.286;21.124;2023-10-08T04:33:43;2.67;;;1.40;;
16699;SDS011;8466;52.286;21.124;2023-10-08T04:36:13;1.73;;;1.50;;
16699;SDS011;8466;52.286;21.124;2023-10-08T04:38:45;1.83;;;1.50;;
16699;SDS011;8466;52.286;21.124;2023-10-08T04:41:15;1.43;;;1.30;;
16699;SDS011;8466;52.286;21.124;2023-10-08T04:43:46;2.07;;;1.40;;
16699;SDS011;8466;52.286;21.124;2023-10-08T04:46:18;1.80;;;1.50;;
16699;SDS011;8466;52.286;21.124;2023-10-08T04:49:00;2.00;;;1.60;;
16699;SDS011;8466;52.286;21.124;2023-10-08T04:51:36;3.27;;;1.33;;
16699;SDS011;8466;52.286;21.124;2023-10-08T04:54:10;3.27;;;1.50;;
16699;SDS011;8466;52.286;21.124;2023-10-08T04:56:43;1.77;;;1.42;;
16699;SDS011;8466;52.286;21.124;2023-10-08T04:59:12;1.60;;;1.20;;
16699;SDS011;8466;52.286;21.124;2023-10-08T05:01:42;3.43;;;1.43;;
16699;SDS011;8466;52.286;21.124;2023-10-08T05:04:15;1.40;;;1.20;;
16699;SDS011;8466;52.286;21.124;2023-10-08T05:06:59;1.33;;;1.23;;
16699;SDS011;8466;52.286;21.124;2023-10-08T05:09:41;2.33;;;1.23;;
16699;SDS011;8466;52.286;21.124;2023-10-08T05:12:19;1.40;;;1.00;;
16699;SDS011;8466;52.286;21.124;2023-10-08T05:15:01;2.10;;;1.47;;
16699;SDS011;8466;52.286;21.124;2023-10-08T05:17:48;4.17;;;1.33;;
16699;SDS011;8466;52.286;21.124;2023-10-08T05:20:34;1.90;;;1.03;;
16699;SDS011;8466;52.286;21.124;2023-10-08T05:23:26;1.40;;;1.10;;
16699;SDS011;8466;52.286;21.124;2023-10-08T05:26:20;2.37;;;1.10;;
16699;SDS011;8466;52.286;21.124;2023-10-08T05:28:58;2.03;;;1.40;;
16699;SDS011;8466;52.286;21.124;2023-10-08T05:31:49;2.27;;;1.17;;
16699;SDS011;8466;52.286;21.124;2023-10-08T05:34:42;2.20;;;1.25;;
16699;SDS011;8466;52.286;21.124;2023-10-08T05:37:17;1.20;;;1.10;;
16699;SDS011;8466;52.286;21.124;2023-10-08T05:40:08;2.17;;;1.20;;
16699;SDS011;8466;52.286;21.124;2023-10-08T05:43:04;1.10;;;1.00;;
16699;SDS011;8466;52.286;21.124;2023-10-08T05:45:49;2.70;;;1.07;;
16699;SDS011;8466;52.286;21.124;2023-10-08T05:48:40;2.70;;;1.07;;
16699;SDS011;8466;52.286;21.124;2023-10-08T05:51:19;0.97;;;0.90;;
16699;SDS011;8466;52.286;21.124;2023-10-08T05:54:00;3.67;;;1.17;;
16699;SDS011;8466;52.286;21.124;2023-10-08T05:56:37;2.53;;;1.30;;
16699;SDS011;8466;52.286;21.124;2023-10-08T05:59:29;2.15;;;1.45;;
16699;SDS011;8466;52.286;21.124;2023-10-08T06:02:05;1.87;;;1.00;;
16699;SDS011;8466;52.286;21.124;2023-10-08T06:04:57;1.55;;;1.00;;
16699;SDS011;8466;52.286;21.124;2023-10-08T06:07:48;1.17;;;0.90;;
16699;SDS011;8466;52.286;21.124;2023-10-08T06:10:25;2.08;;;1.10;;
16699;SDS011;8466;52.286;21.124;2023-10-08T06:13:22;3.40;;;0.87;;
16699;SDS011;8466;52.286;21.124;2023-10-08T06:16:11;1.33;;;1.20;;
16699;SDS011;8466;52.286;21.124;2023-10-08T06:18:58;3.97;;;1.50;;
16699;SDS011;8466;52.286;21.124;2023-10-08T06:21:26;2.40;;;1.48;;
16699;SDS011;8466;52.286;21.124;2023-10-08T06:23:56;2.20;;;1.30;;
16699;SDS011;8466;52.286;21.124;2023-10-08T06:26:24;1.50;;;1.10;;
16699;SDS011;8466;52.286;21.124;2023-10-08T06:28:56;1.20;;;1.10;;
16699;SDS011;8466;52.286;21.124;2023-10-08T06:31:25;1.50;;;1.10;;
16699;SDS011;8466;52.286;21.124;2023-10-08T06:33:56;2.03;;;1.30;;
16699;SDS011;8466;52.286;21.124;2023-10-08T06:36:27;2.50;;;1.10;;
16699;SDS011;8466;52.286;21.124;2023-10-08T06:38:57;2.15;;;0.93;;
16699;SDS011;8466;52.286;21.124;2023-10-08T06:41:26;1.60;;;0.80;;
16699;SDS011;8466;52.286;21.124;2023-10-08T06:44:16;3.07;;;1.00;;
16699;SDS011;8466;52.286;21.124;2023-10-08T06:46:44;1.13;;;0.87;;
16699;SDS011;8466;52.286;21.124;2023-10-08T06:49:17;1.37;;;0.80;;
16699;SDS011;8466;52.286;21.124;2023-10-08T06:51:50;1.53;;;0.90;;
16699;SDS011;8466;52.286;21.124;2023-10-08T06:54:20;1.90;;;0.90;;
16699;SDS011;8466;52.286;21.124;2023-10-08T06:56:49;2.40;;;0.90;;
16699;SDS011;8466;52.286;21.124;2023-10-08T06:59:21;1.33;;;0.90;;
16699;SDS011;8466;52.286;21.124;2023-10-08T07:01:51;1.13;;;0.87;;
16699;SDS011;8466;52.286;21.124;2023-10-08T07:04:19;1.23;;;0.80;;
16699;SDS011;8466;52.286;21.124;2023-10-08T07:06:49;1.47;;;0.80;;
16699;SDS011;8466;52.286;21.124;2023-10-08T07:09:18;1.13;;;0.80;;
16699;SDS011;8466;52.286;21.124;2023-10-08T07:11:57;1.33;;;0.70;;
16699;SDS011;8466;52.286;21.124;2023-10-08T07:14:33;2.23;;;0.63;;
16699;SDS011;8466;52.286;21.124;2023-10-08T07:17:02;3.33;;;0.80;;
16699;SDS011;8466;52.286;21.124;2023-10-08T07:19:35;1.40;;;0.70;;
16699;SDS011;8466;52.286;21.124;2023-10-08T07:22:05;1.53;;;0.80;;
16699;SDS011;8466;52.286;21.124;2023-10-08T07:24:49;0.80;;;0.77;;
16699;SDS011;8466;52.286;21.124;2023-10-08T07:27:19;1.07;;;0.60;;
16699;SDS011;8466;52.286;21.124;2023-10-08T07:29:52;0.97;;;0.70;;
16699;SDS011;8466;52.286;21.124;2023-10-08T07:32:23;1.63;;;0.70;;
16699;SDS011;8466;52.286;21.124;2023-10-08T07:34:53;3.60;;;1.00;;
16699;SDS011;8466;52.286;21.124;2023-10-08T07:37:42;3.13;;;1.00;;
16699;SDS011;8466;52.286;21.124;2023-10-08T07:40:12;2.77;;;0.80;;
16699;SDS011;8466;52.286;21.124;2023-10-08T07:42:41;0.70;;;0.70;;
16699;SDS011;8466;52.286;21.124;2023-10-08T07:45:13;0.90;;;0.70;;
16699;SDS011;8466;52.286;21.124;2023-10-08T07:47:44;1.37;;;0.80;;
16699;SDS011;8466;52.286;21.124;2023-10-08T07:50:13;2.00;;;0.90;;
16699;SDS011;8466;52.286;21.124;2023-10-08T07:52:42;1.37;;;0.83;;
16699;SDS011;8466;52.286;21.124;2023-10-08T07:55:12;1.63;;;0.90;;
16699;SDS011;8466;52.286;21.124;2023-10-08T07:57:45;1.80;;;1.30;;
16699;SDS011;8466;52.286;21.124;2023-10-08T08:00:16;2.47;;;1.20;;
16699;SDS011;8466;52.286;21.124;2023-10-08T08:02:50;1.03;;;0.70;;
16699;SDS011;8466;52.286;21.124;2023-10-08T08:05:22;1.70;;;0.70;;
16699;SDS011;8466;52.286;21.124;2023-10-08T08:07:52;0.50;;;0.50;;
16699;SDS011;8466;52.286;21.124;2023-10-08T08:10:23;1.80;;;0.90;;
16699;SDS011;8466;52.286;21.124;2023-10-08T08:12:52;1.83;;;0.80;;
16699;SDS011;8466;52.286;21.124;2023-10-08T08:15:25;1.85;;;0.70;;
16699;SDS011;8466;52.286;21.124;2023-10-08T08:17:56;2.20;;;0.90;;
16699;SDS011;8466;52.286;21.124;2023-10-08T08:20:27;1.60;;;1.00;;
16699;SDS011;8466;52.286;21.124;2023-10-08T08:23:05;1.87;;;0.80;;
16699;SDS011;8466;52.286;21.124;2023-10-08T08:25:37;0.90;;;0.80;;
16699;SDS011;8466;52.286;21.124;2023-10-08T08:28:22;0.97;;;0.80;;
16699;SDS011;8466;52.286;21.124;2023-10-08T08:30:53;1.30;;;0.70;;
16699;SDS011;8466;52.286;21.124;2023-10-08T08:33:28;2.70;;;0.70;;
16699;SDS011;8466;52.286;21.124;2023-10-08T08:36:18;1.43;;;0.90;;
16699;SDS011;8466;52.286;21.124;2023-10-08T08:38:47;1.13;;;1.03;;
16699;SDS011;8466;52.286;21.124;2023-10-08T08:41:16;1.33;;;1.00;;
16699;SDS011;8466;52.286;21.124;2023-10-08T08:43:47;0.83;;;0.63;;
16699;SDS011;8466;52.286;21.124;2023-10-08T08:46:17;1.77;;;1.00;;
16699;SDS011;8466;52.286;21.124;2023-10-08T08:48:46;2.80;;;0.90;;
16699;SDS011;8466;52.286;21.124;2023-10-08T08:51:17;2.27;;;0.90;;
16699;SDS011;8466;52.286;21.124;2023-10-08T08:53:46;0.67;;;0.50;;
16699;SDS011;8466;52.286;21.124;2023-10-08T08:56:16;1.23;;;0.90;;
16699;SDS011;8466;52.286;21.124;2023-10-08T08:58:45;0.60;;;0.60;;
16699;SDS011;8466;52.286;21.124;2023-10-08T09:01:15;1.90;;;0.90;;
16699;SDS011;8466;52.286;21.124;2023-10-08T09:03:47;1.85;;;1.13;;
16699;SDS011;8466;52.286;21.124;2023-10-08T09:06:17;1.27;;;0.80;;
16699;SDS011;8466;52.286;21.124;2023-10-08T09:08:46;1.57;;;0.80;;
16699;SDS011;8466;52.286;21.124;2023-10-08T09:11:16;3.40;;;0.90;;
16699;SDS011;8466;52.286;21.124;2023-10-08T09:13:45;1.00;;;0.90;;
16699;SDS011;8466;52.286;21.124;2023-10-08T09:16:14;2.45;;;1.00;;
16699;SDS011;8466;52.286;21.124;2023-10-08T09:18:46;1.75;;;0.80;;
16699;SDS011;8466;52.286;21.124;2023-10-08T09:21:16;1.13;;;0.83;;
16699;SDS011;8466;52.286;21.124;2023-10-08T09:23:49;1.40;;;0.80;;
16699;SDS011;8466;52.286;21.124;2023-10-08T09:26:22;0.83;;;0.70;;
16699;SDS011;8466;52.286;21.124;2023-10-08T09:28:51;0.70;;;0.70;;
16699;SDS011;8466;52.286;21.124;2023-10-08T09:31:22;1.03;;;0.57;;
16699;SDS011;8466;52.286;21.124;2023-10-08T09:33:55;0.77;;;0.60;;
16699;SDS011;8466;52.286;21.124;2023-10-08T09:36:24;1.50;;;0.97;;
16699;SDS011;8466;52.286;21.124;2023-10-08T09:39:00;2.23;;;1.00;;
16699;SDS011;8466;52.286;21.124;2023-10-08T09:41:31;3.00;;;0.80;;
16699;SDS011;8466;52.286;21.124;2023-10-08T09:44:01;1.87;;;1.17;;
16699;SDS011;8466;52.286;21.124;2023-10-08T09:46:31;1.83;;;0.80;;
16699;SDS011;8466;52.286;21.124;2023-10-08T09:49:04;1.93;;;0.80;;
16699;SDS011;8466;52.286;21.124;2023-10-08T09:51:35;1.43;;;0.90;;
16699;SDS011;8466;52.286;21.124;2023-10-08T09:54:10;2.30;;;1.00;;
16699;SDS011;8466;52.286;21.124;2023-10-08T09:56:41;2.43;;;0.70;;
16699;SDS011;8466;52.286;21.124;2023-10-08T09:59:11;1.70;;;1.23;;
16699;SDS011;8466;52.286;21.124;2023-10-08T10:01:42;2.00;;;1.40;;
16699;SDS011;8466;52.286;21.124;2023-10-08T10:04:22;1.40;;;0.98;;
16699;SDS011;8466;52.286;21.124;2023-10-08T10:06:54;0.87;;;0.70;;
16699;SDS011;8466;52.286;21.124;2023-10-08T10:09:25;1.17;;;0.53;;
16699;SDS011;8466;52.286;21.124;2023-10-08T10:11:54;1.63;;;1.00;;
16699;SDS011;8466;52.286;21.124;2023-10-08T10:14:24;1.57;;;0.93;;
16699;SDS011;8466;52.286;21.124;2023-10-08T10:17:08;1.10;;;0.90;;
16699;SDS011;8466;52.286;21.124;2023-10-08T10:20:03;1.43;;;0.70;;
16699;SDS011;8466;52.286;21.124;2023-10-08T10:22:39;0.93;;;0.70;;
16699;SDS011;8466;52.286;21.124;2023-10-08T10:25:10;1.70;;;1.03;;
16699;SDS011;8466;52.286;21.124;2023-10-08T10:30:47;2.23;;;1.30;;
16699;SDS011;8466;52.286;21.124;2023-10-08T10:33:16;2.10;;;0.77;;
16699;SDS011;8466;52.286;21.124;2023-10-08T10:35:50;1.20;;;0.90;;
16699;SDS011;8466;52.286;21.124;2023-10-08T10:38:20;1.47;;;1.07;;
16699;SDS011;8466;52.286;21.124;2023-10-08T10:40:53;1.40;;;1.00;;
16699;SDS011;8466;52.286;21.124;2023-10-08T10:43:35;1.43;;;0.80;;
16699;SDS011;8466;52.286;21.124;2023-10-08T10:46:07;3.37;;;0.90;;
16699;SDS011;8466;52.286;21.124;2023-10-08T10:48:49;1.30;;;0.70;;
16699;SDS011;8466;52.286;21.124;2023-10-08T10:51:34;1.60;;;0.60;;
16699;SDS011;8466;52.286;21.124;2023-10-08T10:54:03;0.77;;;0.77;;
16699;SDS011;8466;52.286;21.124;2023-10-08T10:56:35;1.23;;;0.70;;
16699;SDS011;8466;52.286;21.124;2023-10-08T10:59:09;3.27;;;0.97;;
16699;SDS011;8466;52.286;21.124;2023-10-08T11:01:46;2.07;;;0.83;;
16699;SDS011;8466;52.286;21.124;2023-10-08T11:04:19;2.20;;;1.00;;
16699;SDS011;8466;52.286;21.124;2023-10-08T11:06:57;0.93;;;0.47;;
16699;SDS011;8466;52.286;21.124;2023-10-08T11:09:27;0.50;;;0.50;;
16699;SDS011;8466;52.286;21.124;2023-10-08T11:12:06;2.17;;;0.93;;
16699;SDS011;8466;52.286;21.124;2023-10-08T11:14:38;3.30;;;1.10;;
16699;SDS011;8466;52.286;21.124;2023-10-08T11:17:10;1.73;;;1.00;;
16699;SDS011;8466;52.286;21.124;2023-10-08T11:19:41;1.37;;;0.87;;
16699;SDS011;8466;52.286;21.124;2023-10-08T11:22:14;2.63;;;0.97;;
16699;SDS011;8466;52.286;21.124;2023-10-08T11:24:44;2.90;;;1.27;;
16699;SDS011;8466;52.286;21.124;2023-10-08T11:27:16;1.73;;;1.33;;
16699;SDS011;8466;52.286;21.124;2023-10-08T11:29:56;1.83;;;0.90;;
16699;SDS011;8466;52.286;21.124;2023-10-08T11:32:25;0.87;;;0.57;;
16699;SDS011;8466;52.286;21.124;2023-10-08T11:34:54;1.23;;;0.77;;
16699;SDS011;8466;52.286;21.124;2023-10-08T11:37:28;2.53;;;0.90;;
16699;SDS011;8466;52.286;21.124;2023-10-08T11:40:00;2.00;;;1.30;;
16699;SDS011;8466;52.286;21.124;2023-10-08T11:42:44;1.27;;;1.03;;
16699;SDS011;8466;52.286;21.124;2023-10-08T11:45:17;1.30;;;1.20;;
16699;SDS011;8466;52.286;21.124;2023-10-08T11:47:50;2.60;;;1.67;;
16699;SDS011;8466;52.286;21.124;2023-10-08T11:50:23;0.90;;;0.60;;
16699;SDS011;8466;52.286;21.124;2023-10-08T11:52:59;1.97;;;0.57;;
16699;SDS011;8466;52.286;21.124;2023-10-08T11:55:30;0.50;;;0.50;;
16699;SDS011;8466;52.286;21.124;2023-10-08T11:58:03;3.63;;;0.83;;
16699;SDS011;8466;52.286;21.124;2023-10-08T12:00:38;1.40;;;0.77;;
16699;SDS011;8466;52.286;21.124;2023-10-08T12:03:19;0.83;;;0.70;;
16699;SDS011;8466;52.286;21.124;2023-10-08T12:05:52;0.60;;;0.60;;
16699;SDS011;8466;52.286;21.124;2023-10-08T12:08:27;1.87;;;0.80;;
16699;SDS011;8466;52.286;21.124;2023-10-08T12:10:57;1.70;;;0.90;;
16699;SDS011;8466;52.286;21.124;2023-10-08T12:13:26;5.77;;;0.70;;
16699;SDS011;8466;52.286;21.124;2023-10-08T12:15:55;7.30;;;1.03;;
16699;SDS011;8466;52.286;21.124;2023-10-08T12:18:33;1.17;;;0.87;;
16699;SDS011;8466;52.286;21.124;2023-10-08T12:21:07;2.60;;;1.20;;
16699;SDS011;8466;52.286;21.124;2023-10-08T12:23:39;2.70;;;0.67;;
16699;SDS011;8466;52.286;21.124;2023-10-08T12:26:10;3.43;;;0.80;;
16699;SDS011;8466;52.286;21.124;2023-10-08T12:28:42;1.27;;;0.90;;
16699;SDS011;8466;52.286;21.124;2023-10-08T12:31:12;1.25;;;1.10;;
16699;SDS011;8466;52.286;21.124;2023-10-08T12:33:43;2.03;;;1.10;;
16699;SDS011;8466;52.286;21.124;2023-10-08T12:36:11;1.80;;;0.80;;
16699;SDS011;8466;52.286;21.124;2023-10-08T12:38:42;1.40;;;0.80;;
16699;SDS011;8466;52.286;21.124;2023-10-08T12:41:11;1.53;;;0.70;;
16699;SDS011;8466;52.286;21.124;2023-10-08T12:43:41;0.93;;;0.60;;
16699;SDS011;8466;52.286;21.124;2023-10-08T12:46:12;4.60;;;0.70;;
16699;SDS011;8466;52.286;21.124;2023-10-08T12:48:45;3.37;;;1.07;;
16699;SDS011;8466;52.286;21.124;2023-10-08T12:51:19;1.33;;;1.17;;
16699;SDS011;8466;52.286;21.124;2023-10-08T12:53:53;0.63;;;0.63;;
16699;SDS011;8466;52.286;21.124;2023-10-08T12:56:36;1.23;;;1.03;;
16699;SDS011;8466;52.286;21.124;2023-10-08T12:59:12;1.30;;;1.20;;
16699;SDS011;8466;52.286;21.124;2023-10-08T13:01:48;3.93;;;0.73;;
16699;SDS011;8466;52.286;21.124;2023-10-08T13:04:22;2.73;;;0.80;;
16699;SDS011;8466;52.286;21.124;2023-10-08T13:06:55;0.90;;;0.70;;
16699;SDS011;8466;52.286;21.124;2023-10-08T13:09:29;1.60;;;0.67;;
16699;SDS011;8466;52.286;21.124;2023-10-08T13:11:58;1.00;;;0.80;;
16699;SDS011;8466;52.286;21.124;2023-10-08T13:14:27;2.40;;;1.10;;
16699;SDS011;8466;52.286;21.124;2023-10-08T13:16:56;1.13;;;0.70;;
16699;SDS011;8466;52.286;21.124;2023-10-08T13:19:25;2.27;;;1.20;;
16699;SDS011;8466;52.286;21.124;2023-10-08T13:21:56;3.10;;;0.87;;
16699;SDS011;8466;52.286;21.124;2023-10-08T13:24:25;7.43;;;0.70;;
16699;SDS011;8466;52.286;21.124;2023-10-08T13:26:56;1.13;;;0.80;;
16699;SDS011;8466;52.286;21.124;2023-10-08T13:29:26;0.93;;;0.73;;
16699;SDS011;8466;52.286;21.124;2023-10-08T13:32:00;3.83;;;1.00;;
16699;SDS011;8466;52.286;21.124;2023-10-08T13:34:31;1.50;;;0.90;;
16699;SDS011;8466;52.286;21.124;2023-10-08T13:37:00;2.37;;;1.27;;
16699;SDS011;8466;52.286;21.124;2023-10-08T13:39:28;2.90;;;1.10;;
16699;SDS011;8466;52.286;21.124;2023-10-08T13:41:59;8.80;;;0.90;;
16699;SDS011;8466;52.286;21.124;2023-10-08T13:44:28;0.70;;;0.70;;
16699;SDS011;8466;52.286;21.124;2023-10-08T13:46:57;3.33;;;0.90;;
16699;SDS011;8466;52.286;21.124;2023-10-08T13:49:27;2.43;;;0.93;;
16699;SDS011;8466;52.286;21.124;2023-10-08T13:51:56;4.27;;;1.10;;
16699;SDS011;8466;52.286;21.124;2023-10-08T13:54:26;2.07;;;1.00;;
16699;SDS011;8466;52.286;21.124;2023-10-08T13:56:56;3.37;;;0.93;;
16699;SDS011;8466;52.286;21.124;2023-10-08T13:59:28;1.97;;;1.50;;
16699;SDS011;8466;52.286;21.124;2023-10-08T14:01:59;1.47;;;0.80;;
16699;SDS011;8466;52.286;21.124;2023-10-08T14:04:35;2.43;;;1.00;;
16699;SDS011;8466;52.286;21.124;2023-10-08T14:07:07;2.50;;;1.10;;
16699;SDS011;8466;52.286;21.124;2023-10-08T14:09:38;2.97;;;1.07;;
16699;SDS011;8466;52.286;21.124;2023-10-08T14:12:10;1.10;;;0.97;;
16699;SDS011;8466;52.286;21.124;2023-10-08T14:14:39;1.77;;;0.90;;
16699;SDS011;8466;52.286;21.124;2023-10-08T14:17:11;2.53;;;1.20;;
16699;SDS011;8466;52.286;21.124;2023-10-08T14:19:42;1.30;;;1.00;;
16699;SDS011;8466;52.286;21.124;2023-10-08T14:22:19;1.42;;;1.10;;
16699;SDS011;8466;52.286;21.124;2023-10-08T14:24:49;2.77;;;1.10;;
16699;SDS011;8466;52.286;21.124;2023-10-08T14:27:27;1.98;;;1.10;;
16699;SDS011;8466;52.286;21.124;2023-10-08T14:29:59;2.50;;;1.07;;
16699;SDS011;8466;52.286;21.124;2023-10-08T14:32:32;1.00;;;0.80;;
16699;SDS011;8466;52.286;21.124;2023-10-08T14:35:01;2.03;;;1.10;;
16699;SDS011;8466;52.286;21.124;2023-10-08T14:37:47;2.93;;;1.10;;
16699;SDS011;8466;52.286;21.124;2023-10-08T14:40:33;1.20;;;1.00;;
16699;SDS011;8466;52.286;21.124;2023-10-08T14:43:20;1.00;;;0.77;;
16699;SDS011;8466;52.286;21.124;2023-10-08T14:45:50;0.90;;;0.80;;
16699;SDS011;8466;52.286;21.124;2023-10-08T14:48:20;1.50;;;0.90;;
16699;SDS011;8466;52.286;21.124;2023-10-08T14:50:50;0.50;;;0.50;;
16699;SDS011;8466;52.286;21.124;2023-10-08T14:53:19;2.17;;;1.00;;
16699;SDS011;8466;52.286;21.124;2023-10-08T14:55:48;4.13;;;2.20;;
16699;SDS011;8466;52.286;21.124;2023-10-08T14:58:17;2.70;;;1.00;;
16699;SDS011;8466;52.286;21.124;2023-10-08T15:00:47;1.57;;;1.10;;
16699;SDS011;8466;52.286;21.124;2023-10-08T15:03:15;1.23;;;0.97;;
16699;SDS011;8466;52.286;21.124;2023-10-08T15:05:44;2.13;;;1.20;;
16699;SDS011;8466;52.286;21.124;2023-10-08T15:08:17;4.70;;;1.13;;
16699;SDS011;8466;52.286;21.124;2023-10-08T15:10:45;2.17;;;1.13;;
16699;SDS011;8466;52.286;21.124;2023-10-08T15:13:16;1.20;;;1.00;;
16699;SDS011;8466;52.286;21.124;2023-10-08T15:15:45;1.23;;;0.90;;
16699;SDS011;8466;52.286;21.124;2023-10-08T15:18:19;3.50;;;1.10;;
16699;SDS011;8466;52.286;21.124;2023-10-08T15:20:49;2.07;;;1.30;;
16699;SDS011;8466;52.286;21.124;2023-10-08T15:23:19;3.23;;;1.47;;
16699;SDS011;8466;52.286;21.124;2023-10-08T15:25:52;1.80;;;1.53;;
16699;SDS011;8466;52.286;21.124;2023-10-08T15:28:20;3.13;;;1.80;;